sensor_id;sensor_type;location;lat;lon;timestamp;temperature;humidity
69546;SHT31;56766;52.260;20.746;2023-07-13T00:02:10;17.77;81.67
69546;SHT31;56766;52.260;20.746;2023-07-13T00:04:36;17.75;81.84
69546;SHT31;56766;52.260;20.746;2023-07-13T00:07:03;17.73;81.76
69546;SHT31;56766;52.260;20.746;2023-07-13T00:09:32;17.73;81.85
69546;SHT31;56766;52.260;20.746;2023-07-13T00:12:00;17.69;81.88
69546;SHT31;56766;52.260;20.746;2023-07-13T00:14:29;17.59;81.91
69546;SHT31;56766;52.260;20.746;2023-07-13T00:16:56;17.52;82.01
69546;SHT31;56766;52.260;20.746;2023-07-13T00:19:23;17.50;82.29
69546;SHT31;56766;52.260;20.746;2023-07-13T00:21:50;17.49;83.07
69546;SHT31;56766;52.260;20.746;2023-07-13T00:24:18;17.50;83.44
69546;SHT31;56766;52.260;20.746;2023-07-13T00:26:49;17.50;83.62
69546;SHT31;56766;52.260;20.746;2023-07-13T00:29:16;17.50;83.38
69546;SHT31;56766;52.260;20.746;2023-07-13T00:31:43;17.53;83.29
69546;SHT31;56766;52.260;20.746;2023-07-13T00:34:11;17.52;83.29
69546;SHT31;56766;52.260;20.746;2023-07-13T00:36:39;17.52;83.13
69546;SHT31;56766;52.260;20.746;2023-07-13T00:39:07;17.50;83.23
69546;SHT31;56766;52.260;20.746;2023-07-13T00:41:35;17.45;83.24
69546;SHT31;56766;52.260;20.746;2023-07-13T00:44:04;17.42;83.12
69546;SHT31;56766;52.260;20.746;2023-07-13T00:46:33;17.46;83.23
69546;SHT31;56766;52.260;20.746;2023-07-13T00:49:06;17.49;83.67
69546;SHT31;56766;52.260;20.746;2023-07-13T00:52:14;17.49;83.78
69546;SHT31;56766;52.260;20.746;2023-07-13T00:54:45;17.49;83.39
69546;SHT31;56766;52.260;20.746;2023-07-13T00:57:17;17.49;83.06
69546;SHT31;56766;52.260;20.746;2023-07-13T00:59:52;17.48;82.87
69546;SHT31;56766;52.260;20.746;2023-07-13T01:02:24;17.47;82.74
69546;SHT31;56766;52.260;20.746;2023-07-13T01:04:51;17.47;82.64
69546;SHT31;56766;52.260;20.746;2023-07-13T01:07:18;17.46;82.47
69546;SHT31;56766;52.260;20.746;2023-07-13T01:09:45;17.46;82.41
69546;SHT31;56766;52.260;20.746;2023-07-13T01:12:12;17.45;82.43
69546;SHT31;56766;52.260;20.746;2023-07-13T01:14:40;17.44;82.69
69546;SHT31;56766;52.260;20.746;2023-07-13T01:17:10;17.41;82.89
69546;SHT31;56766;52.260;20.746;2023-07-13T01:19:43;17.41;82.76
69546;SHT31;56766;52.260;20.746;2023-07-13T01:22:14;17.41;82.77
69546;SHT31;56766;52.260;20.746;2023-07-13T01:24:46;17.40;82.68
69546;SHT31;56766;52.260;20.746;2023-07-13T01:27:16;17.38;82.42
69546;SHT31;56766;52.260;20.746;2023-07-13T01:29:46;17.38;82.34
69546;SHT31;56766;52.260;20.746;2023-07-13T01:32:18;17.37;82.44
69546;SHT31;56766;52.260;20.746;2023-07-13T01:34:51;17.35;82.19
69546;SHT31;56766;52.260;20.746;2023-07-13T01:37:21;17.34;82.23
69546;SHT31;56766;52.260;20.746;2023-07-13T01:39:49;17.33;82.12
69546;SHT31;56766;52.260;20.746;2023-07-13T01:42:16;17.32;82.12
69546;SHT31;56766;52.260;20.746;2023-07-13T01:44:42;17.32;82.41
69546;SHT31;56766;52.260;20.746;2023-07-13T01:47:10;17.31;82.67
69546;SHT31;56766;52.260;20.746;2023-07-13T01:49:37;17.31;82.54
69546;SHT31;56766;52.260;20.746;2023-07-13T01:52:04;17.31;82.65
69546;SHT31;56766;52.260;20.746;2023-07-13T01:54:31;17.32;82.94
69546;SHT31;56766;52.260;20.746;2023-07-13T01:57:00;17.33;83.00
69546;SHT31;56766;52.260;20.746;2023-07-13T01:59:26;17.33;83.26
69546;SHT31;56766;52.260;20.746;2023-07-13T02:01:53;17.32;83.43
69546;SHT31;56766;52.260;20.746;2023-07-13T02:04:20;17.30;83.60
69546;SHT31;56766;52.260;20.746;2023-07-13T02:06:47;17.27;83.68
69546;SHT31;56766;52.260;20.746;2023-07-13T02:09:13;17.23;83.63
69546;SHT31;56766;52.260;20.746;2023-07-13T02:11:40;17.20;83.49
69546;SHT31;56766;52.260;20.746;2023-07-13T02:14:06;17.18;83.34
69546;SHT31;56766;52.260;20.746;2023-07-13T02:16:33;17.19;83.20
69546;SHT31;56766;52.260;20.746;2023-07-13T02:18:59;17.18;82.97
69546;SHT31;56766;52.260;20.746;2023-07-13T02:21:26;17.13;83.08
69546;SHT31;56766;52.260;20.746;2023-07-13T02:23:53;17.06;83.32
69546;SHT31;56766;52.260;20.746;2023-07-13T02:26:21;17.03;83.41
69546;SHT31;56766;52.260;20.746;2023-07-13T02:28:47;17.06;83.39
69546;SHT31;56766;52.260;20.746;2023-07-13T02:31:15;17.08;83.53
69546;SHT31;56766;52.260;20.746;2023-07-13T02:33:42;17.09;83.70
69546;SHT31;56766;52.260;20.746;2023-07-13T02:36:10;17.11;83.81
69546;SHT31;56766;52.260;20.746;2023-07-13T02:38:37;17.12;83.83
69546;SHT31;56766;52.260;20.746;2023-07-13T02:41:07;17.15;83.76
69546;SHT31;56766;52.260;20.746;2023-07-13T02:43:36;17.18;83.70
69546;SHT31;56766;52.260;20.746;2023-07-13T02:46:04;17.19;83.85
69546;SHT31;56766;52.260;20.746;2023-07-13T02:48:34;17.22;84.08
69546;SHT31;56766;52.260;20.746;2023-07-13T02:51:02;17.25;84.15
69546;SHT31;56766;52.260;20.746;2023-07-13T02:53:29;17.27;84.14
69546;SHT31;56766;52.260;20.746;2023-07-13T02:55:56;17.30;84.06
69546;SHT31;56766;52.260;20.746;2023-07-13T02:58:23;17.28;83.86
69546;SHT31;56766;52.260;20.746;2023-07-13T03:00:50;17.28;83.96
69546;SHT31;56766;52.260;20.746;2023-07-13T03:03:17;17.27;83.76
69546;SHT31;56766;52.260;20.746;2023-07-13T03:05:45;17.27;83.50
69546;SHT31;56766;52.260;20.746;2023-07-13T03:08:17;17.26;83.57
69546;SHT31;56766;52.260;20.746;2023-07-13T03:10:44;17.25;83.74
69546;SHT31;56766;52.260;20.746;2023-07-13T03:13:11;17.21;83.74
69546;SHT31;56766;52.260;20.746;2023-07-13T03:15:38;17.21;83.52
69546;SHT31;56766;52.260;20.746;2023-07-13T03:18:04;17.22;83.64
69546;SHT31;56766;52.260;20.746;2023-07-13T03:20:33;17.20;83.88
69546;SHT31;56766;52.260;20.746;2023-07-13T03:23:00;17.25;84.00
69546;SHT31;56766;52.260;20.746;2023-07-13T03:25:27;17.32;83.86
69546;SHT31;56766;52.260;20.746;2023-07-13T03:27:53;17.39;83.75
69546;SHT31;56766;52.260;20.746;2023-07-13T03:30:20;17.47;83.70
69546;SHT31;56766;52.260;20.746;2023-07-13T03:32:46;17.69;83.64
69546;SHT31;56766;52.260;20.746;2023-07-13T03:35:13;17.96;83.28
69546;SHT31;56766;52.260;20.746;2023-07-13T03:37:40;18.17;82.99
69546;SHT31;56766;52.260;20.746;2023-07-13T03:40:09;18.44;82.88
69546;SHT31;56766;52.260;20.746;2023-07-13T03:42:36;18.89;81.98
69546;SHT31;56766;52.260;20.746;2023-07-13T03:45:03;19.35;80.95
69546;SHT31;56766;52.260;20.746;2023-07-13T03:47:30;19.56;80.05
69546;SHT31;56766;52.260;20.746;2023-07-13T03:49:57;19.54;79.76
69546;SHT31;56766;52.260;20.746;2023-07-13T03:52:23;19.56;79.71
69546;SHT31;56766;52.260;20.746;2023-07-13T03:54:50;19.62;79.49
69546;SHT31;56766;52.260;20.746;2023-07-13T03:57:18;19.67;79.42
69546;SHT31;56766;52.260;20.746;2023-07-13T03:59:45;19.67;79.46
69546;SHT31;56766;52.260;20.746;2023-07-13T04:02:11;19.74;79.31
69546;SHT31;56766;52.260;20.746;2023-07-13T04:04:38;19.81;79.35
69546;SHT31;56766;52.260;20.746;2023-07-13T04:07:07;19.92;79.28
69546;SHT31;56766;52.260;20.746;2023-07-13T04:09:35;20.03;79.06
69546;SHT31;56766;52.260;20.746;2023-07-13T04:12:02;20.16;79.00
69546;SHT31;56766;52.260;20.746;2023-07-13T04:14:29;20.33;79.13
69546;SHT31;56766;52.260;20.746;2023-07-13T04:16:56;20.62;79.12
69546;SHT31;56766;52.260;20.746;2023-07-13T04:19:23;20.90;78.94
69546;SHT31;56766;52.260;20.746;2023-07-13T04:21:50;21.07;78.79
69546;SHT31;56766;52.260;20.746;2023-07-13T04:24:16;21.21;78.74
69546;SHT31;56766;52.260;20.746;2023-07-13T04:26:43;21.37;78.61
69546;SHT31;56766;52.260;20.746;2023-07-13T04:29:10;21.45;78.31
69546;SHT31;56766;52.260;20.746;2023-07-13T04:31:37;21.50;78.52
69546;SHT31;56766;52.260;20.746;2023-07-13T04:34:03;21.63;78.25
69546;SHT31;56766;52.260;20.746;2023-07-13T04:36:30;21.72;78.03
69546;SHT31;56766;52.260;20.746;2023-07-13T04:38:57;21.80;77.90
69546;SHT31;56766;52.260;20.746;2023-07-13T04:41:24;21.84;77.53
69546;SHT31;56766;52.260;20.746;2023-07-13T04:43:51;21.81;77.41
69546;SHT31;56766;52.260;20.746;2023-07-13T04:46:18;21.77;77.41
69546;SHT31;56766;52.260;20.746;2023-07-13T04:48:46;21.72;77.43
69546;SHT31;56766;52.260;20.746;2023-07-13T04:51:13;21.70;77.36
69546;SHT31;56766;52.260;20.746;2023-07-13T04:53:39;21.70;76.93
69546;SHT31;56766;52.260;20.746;2023-07-13T04:56:06;21.64;77.19
69546;SHT31;56766;52.260;20.746;2023-07-13T04:58:33;21.59;77.35
69546;SHT31;56766;52.260;20.746;2023-07-13T05:01:02;21.57;77.49
69546;SHT31;56766;52.260;20.746;2023-07-13T05:03:31;21.59;77.76
69546;SHT31;56766;52.260;20.746;2023-07-13T05:06:02;21.65;77.79
69546;SHT31;56766;52.260;20.746;2023-07-13T05:08:32;21.72;77.55
69546;SHT31;56766;52.260;20.746;2023-07-13T05:11:00;21.75;77.42
69546;SHT31;56766;52.260;20.746;2023-07-13T05:13:28;21.78;77.42
69546;SHT31;56766;52.260;20.746;2023-07-13T05:16:00;21.84;77.44
69546;SHT31;56766;52.260;20.746;2023-07-13T05:18:30;21.88;77.20
69546;SHT31;56766;52.260;20.746;2023-07-13T05:21:03;21.93;77.42
69546;SHT31;56766;52.260;20.746;2023-07-13T05:23:34;22.04;77.58
69546;SHT31;56766;52.260;20.746;2023-07-13T05:26:02;22.15;77.55
69546;SHT31;56766;52.260;20.746;2023-07-13T05:28:31;22.27;77.43
69546;SHT31;56766;52.260;20.746;2023-07-13T05:30:58;22.36;77.43
69546;SHT31;56766;52.260;20.746;2023-07-13T05:33:27;22.43;77.31
69546;SHT31;56766;52.260;20.746;2023-07-13T05:35:54;22.51;77.24
69546;SHT31;56766;52.260;20.746;2023-07-13T05:38:21;22.60;77.11
69546;SHT31;56766;52.260;20.746;2023-07-13T05:40:49;22.73;76.97
69546;SHT31;56766;52.260;20.746;2023-07-13T05:43:17;22.84;76.87
69546;SHT31;56766;52.260;20.746;2023-07-13T05:45:43;22.93;76.78
69546;SHT31;56766;52.260;20.746;2023-07-13T05:48:10;23.06;76.72
69546;SHT31;56766;52.260;20.746;2023-07-13T05:50:37;23.17;76.60
69546;SHT31;56766;52.260;20.746;2023-07-13T05:53:04;23.29;76.51
69546;SHT31;56766;52.260;20.746;2023-07-13T05:55:31;23.36;76.42
69546;SHT31;56766;52.260;20.746;2023-07-13T05:58:00;23.50;76.20
69546;SHT31;56766;52.260;20.746;2023-07-13T06:00:27;23.70;75.73
69546;SHT31;56766;52.260;20.746;2023-07-13T06:02:55;23.82;74.71
69546;SHT31;56766;52.260;20.746;2023-07-13T06:05:23;23.91;74.30
69546;SHT31;56766;52.260;20.746;2023-07-13T06:07:49;24.03;74.02
69546;SHT31;56766;52.260;20.746;2023-07-13T06:10:16;24.10;73.95
69546;SHT31;56766;52.260;20.746;2023-07-13T06:12:43;24.18;73.64
69546;SHT31;56766;52.260;20.746;2023-07-13T06:15:09;24.31;73.09
69546;SHT31;56766;52.260;20.746;2023-07-13T06:17:36;24.39;72.96
69546;SHT31;56766;52.260;20.746;2023-07-13T06:20:03;24.72;73.19
69546;SHT31;56766;52.260;20.746;2023-07-13T06:22:30;25.15;73.03
69546;SHT31;56766;52.260;20.746;2023-07-13T06:24:57;25.47;72.58
69546;SHT31;56766;52.260;20.746;2023-07-13T06:27:24;25.65;71.78
69546;SHT31;56766;52.260;20.746;2023-07-13T06:29:51;25.75;71.14
69546;SHT31;56766;52.260;20.746;2023-07-13T06:32:18;25.85;71.31
69546;SHT31;56766;52.260;20.746;2023-07-13T06:34:44;25.91;70.64
69546;SHT31;56766;52.260;20.746;2023-07-13T06:37:11;26.00;69.89
69546;SHT31;56766;52.260;20.746;2023-07-13T06:39:38;26.04;69.24
69546;SHT31;56766;52.260;20.746;2023-07-13T06:42:05;26.04;68.95
69546;SHT31;56766;52.260;20.746;2023-07-13T06:44:32;26.07;69.19
69546;SHT31;56766;52.260;20.746;2023-07-13T06:46:59;26.12;68.93
69546;SHT31;56766;52.260;20.746;2023-07-13T06:49:25;26.20;68.88
69546;SHT31;56766;52.260;20.746;2023-07-13T06:51:52;26.32;68.69
69546;SHT31;56766;52.260;20.746;2023-07-13T06:54:18;26.44;68.25
69546;SHT31;56766;52.260;20.746;2023-07-13T06:56:45;26.49;67.81
69546;SHT31;56766;52.260;20.746;2023-07-13T06:59:12;26.48;67.13
69546;SHT31;56766;52.260;20.746;2023-07-13T07:01:38;26.44;67.72
69546;SHT31;56766;52.260;20.746;2023-07-13T07:04:05;26.43;66.06
69546;SHT31;56766;52.260;20.746;2023-07-13T07:06:32;26.42;65.78
69546;SHT31;56766;52.260;20.746;2023-07-13T07:08:58;26.51;66.41
69546;SHT31;56766;52.260;20.746;2023-07-13T07:11:26;26.66;66.31
69546;SHT31;56766;52.260;20.746;2023-07-13T07:13:53;26.80;65.67
69546;SHT31;56766;52.260;20.746;2023-07-13T07:16:21;26.81;64.69
69546;SHT31;56766;52.260;20.746;2023-07-13T07:18:48;26.84;64.76
69546;SHT31;56766;52.260;20.746;2023-07-13T07:21:15;26.95;64.15
69546;SHT31;56766;52.260;20.746;2023-07-13T07:23:43;26.99;64.15
69546;SHT31;56766;52.260;20.746;2023-07-13T07:26:10;27.12;63.99
69546;SHT31;56766;52.260;20.746;2023-07-13T07:28:38;27.25;63.42
69546;SHT31;56766;52.260;20.746;2023-07-13T07:31:05;27.42;63.83
69546;SHT31;56766;52.260;20.746;2023-07-13T07:33:33;27.58;62.62
69546;SHT31;56766;52.260;20.746;2023-07-13T07:36:00;27.64;62.18
69546;SHT31;56766;52.260;20.746;2023-07-13T07:38:28;27.65;61.97
69546;SHT31;56766;52.260;20.746;2023-07-13T07:40:54;27.76;61.98
69546;SHT31;56766;52.260;20.746;2023-07-13T07:43:21;27.99;60.86
69546;SHT31;56766;52.260;20.746;2023-07-13T07:45:48;28.20;59.42
69546;SHT31;56766;52.260;20.746;2023-07-13T07:48:14;28.39;58.70
69546;SHT31;56766;52.260;20.746;2023-07-13T07:50:41;28.56;57.34
69546;SHT31;56766;52.260;20.746;2023-07-13T07:53:09;28.65;55.91
69546;SHT31;56766;52.260;20.746;2023-07-13T07:55:36;28.71;55.08
69546;SHT31;56766;52.260;20.746;2023-07-13T07:58:05;28.76;55.06
69546;SHT31;56766;52.260;20.746;2023-07-13T08:00:32;28.94;55.11
69546;SHT31;56766;52.260;20.746;2023-07-13T08:02:59;29.06;53.92
69546;SHT31;56766;52.260;20.746;2023-07-13T08:05:26;29.19;54.35
69546;SHT31;56766;52.260;20.746;2023-07-13T08:07:53;29.39;54.46
69546;SHT31;56766;52.260;20.746;2023-07-13T08:10:20;29.52;54.37
69546;SHT31;56766;52.260;20.746;2023-07-13T08:12:47;29.68;53.73
69546;SHT31;56766;52.260;20.746;2023-07-13T08:15:16;29.87;53.17
69546;SHT31;56766;52.260;20.746;2023-07-13T08:17:43;30.06;52.61
69546;SHT31;56766;52.260;20.746;2023-07-13T08:20:10;30.22;51.96
69546;SHT31;56766;52.260;20.746;2023-07-13T08:22:37;30.39;52.14
69546;SHT31;56766;52.260;20.746;2023-07-13T08:25:04;30.61;51.35
69546;SHT31;56766;52.260;20.746;2023-07-13T08:27:32;30.79;50.78
69546;SHT31;56766;52.260;20.746;2023-07-13T08:29:59;30.93;50.60
69546;SHT31;56766;52.260;20.746;2023-07-13T08:32:26;31.17;49.90
69546;SHT31;56766;52.260;20.746;2023-07-13T08:34:52;31.39;50.10
69546;SHT31;56766;52.260;20.746;2023-07-13T08:37:19;31.64;49.63
69546;SHT31;56766;52.260;20.746;2023-07-13T08:39:46;31.70;48.97
69546;SHT31;56766;52.260;20.746;2023-07-13T08:45:30;31.67;49.50
69546;SHT31;56766;52.260;20.746;2023-07-13T08:48:17;31.64;48.72
69546;SHT31;56766;52.260;20.746;2023-07-13T08:54:05;31.61;47.70
69546;SHT31;56766;52.260;20.746;2023-07-13T08:56:50;31.16;45.76
69546;SHT31;56766;52.260;20.746;2023-07-13T08:59:25;30.88;47.35
69546;SHT31;56766;52.260;20.746;2023-07-13T09:05:10;31.26;48.19
69546;SHT31;56766;52.260;20.746;2023-07-13T09:08:12;31.58;48.17
69546;SHT31;56766;52.260;20.746;2023-07-13T09:10:46;32.04;47.75
69546;SHT31;56766;52.260;20.746;2023-07-13T09:16:24;32.80;45.18
69546;SHT31;56766;52.260;20.746;2023-07-13T09:18:56;32.76;43.54
69546;SHT31;56766;52.260;20.746;2023-07-13T09:21:37;32.68;44.42
69546;SHT31;56766;52.260;20.746;2023-07-13T09:27:14;33.25;44.46
69546;SHT31;56766;52.260;20.746;2023-07-13T09:29:57;33.48;44.02
69546;SHT31;56766;52.260;20.746;2023-07-13T09:32:31;33.50;42.95
69546;SHT31;56766;52.260;20.746;2023-07-13T09:34:59;32.91;40.04
69546;SHT31;56766;52.260;20.746;2023-07-13T09:37:31;31.69;40.06
69546;SHT31;56766;52.260;20.746;2023-07-13T09:40:02;30.70;41.35
69546;SHT31;56766;52.260;20.746;2023-07-13T09:42:32;29.94;42.70
69546;SHT31;56766;52.260;20.746;2023-07-13T09:45:01;29.30;43.39
69546;SHT31;56766;52.260;20.746;2023-07-13T09:47:31;28.45;44.40
69546;SHT31;56766;52.260;20.746;2023-07-13T09:50:02;27.85;45.64
69546;SHT31;56766;52.260;20.746;2023-07-13T09:52:44;27.48;46.47
69546;SHT31;56766;52.260;20.746;2023-07-13T09:55:37;27.08;47.16
69546;SHT31;56766;52.260;20.746;2023-07-13T10:00:44;26.34;48.70
69546;SHT31;56766;52.260;20.746;2023-07-13T10:03:26;25.95;49.45
69546;SHT31;56766;52.260;20.746;2023-07-13T10:05:54;25.55;50.53
69546;SHT31;56766;52.260;20.746;2023-07-13T10:08:35;25.11;51.69
69546;SHT31;56766;52.260;20.746;2023-07-13T10:14:01;24.42;54.03
69546;SHT31;56766;52.260;20.746;2023-07-13T10:16:31;24.07;55.52
69546;SHT31;56766;52.260;20.746;2023-07-13T10:21:55;23.19;58.85
69546;SHT31;56766;52.260;20.746;2023-07-13T10:24:24;22.87;60.52
69546;SHT31;56766;52.260;20.746;2023-07-13T10:27:18;22.59;61.78
69546;SHT31;56766;52.260;20.746;2023-07-13T10:30:21;22.36;64.57
69546;SHT31;56766;52.260;20.746;2023-07-13T10:32:52;21.69;65.84
69546;SHT31;56766;52.260;20.746;2023-07-13T10:35:22;21.24;67.95
69546;SHT31;56766;52.260;20.746;2023-07-13T10:38:01;20.85;68.99
69546;SHT31;56766;52.260;20.746;2023-07-13T10:40:56;20.50;70.69
69546;SHT31;56766;52.260;20.746;2023-07-13T10:43:43;20.18;71.08
69546;SHT31;56766;52.260;20.746;2023-07-13T10:46:15;19.81;72.62
69546;SHT31;56766;52.260;20.746;2023-07-13T10:48:46;19.50;74.00
69546;SHT31;56766;52.260;20.746;2023-07-13T10:51:19;19.15;75.17
69546;SHT31;56766;52.260;20.746;2023-07-13T10:54:26;18.93;76.37
69546;SHT31;56766;52.260;20.746;2023-07-13T10:57:16;18.74;77.07
69546;SHT31;56766;52.260;20.746;2023-07-13T11:00:16;18.56;77.79
69546;SHT31;56766;52.260;20.746;2023-07-13T11:02:57;18.56;78.80
69546;SHT31;56766;52.260;20.746;2023-07-13T11:05:32;18.45;79.43
69546;SHT31;56766;52.260;20.746;2023-07-13T11:08:16;18.27;80.45
69546;SHT31;56766;52.260;20.746;2023-07-13T11:10:59;18.06;81.10
69546;SHT31;56766;52.260;20.746;2023-07-13T11:13:38;17.95;81.40
69546;SHT31;56766;52.260;20.746;2023-07-13T11:16:36;17.86;81.74
69546;SHT31;56766;52.260;20.746;2023-07-13T11:24:58;17.72;82.69
69546;SHT31;56766;52.260;20.746;2023-07-13T11:27:51;17.75;82.97
69546;SHT31;56766;52.260;20.746;2023-07-13T11:30:25;17.78;83.08
69546;SHT31;56766;52.260;20.746;2023-07-13T11:36:18;17.97;83.42
69546;SHT31;56766;52.260;20.746;2023-07-13T11:39:03;18.06;83.67
69546;SHT31;56766;52.260;20.746;2023-07-13T11:41:53;18.22;84.05
69546;SHT31;56766;52.260;20.746;2023-07-13T11:44:26;18.31;83.88
69546;SHT31;56766;52.260;20.746;2023-07-13T11:47:00;18.41;84.13
69546;SHT31;56766;52.260;20.746;2023-07-13T11:49:43;18.56;84.35
69546;SHT31;56766;52.260;20.746;2023-07-13T11:52:17;18.67;84.32
69546;SHT31;56766;52.260;20.746;2023-07-13T11:54:49;18.79;84.41
69546;SHT31;56766;52.260;20.746;2023-07-13T11:57:29;18.89;84.42
69546;SHT31;56766;52.260;20.746;2023-07-13T12:00:15;18.96;84.42
69546;SHT31;56766;52.260;20.746;2023-07-13T12:02:47;19.08;84.51
69546;SHT31;56766;52.260;20.746;2023-07-13T12:05:18;19.22;84.55
69546;SHT31;56766;52.260;20.746;2023-07-13T12:07:50;19.31;84.58
69546;SHT31;56766;52.260;20.746;2023-07-13T12:10:22;19.43;84.59
69546;SHT31;56766;52.260;20.746;2023-07-13T12:13:03;19.46;84.53
69546;SHT31;56766;52.260;20.746;2023-07-13T12:15:40;19.49;84.59
69546;SHT31;56766;52.260;20.746;2023-07-13T12:18:16;19.48;84.47
69546;SHT31;56766;52.260;20.746;2023-07-13T12:20:48;19.44;84.35
69546;SHT31;56766;52.260;20.746;2023-07-13T12:23:30;19.35;84.17
69546;SHT31;56766;52.260;20.746;2023-07-13T12:26:02;19.31;84.43
69546;SHT31;56766;52.260;20.746;2023-07-13T12:31:08;19.35;84.70
69546;SHT31;56766;52.260;20.746;2023-07-13T12:33:58;19.40;84.82
69546;SHT31;56766;52.260;20.746;2023-07-13T12:36:31;19.47;84.84
69546;SHT31;56766;52.260;20.746;2023-07-13T12:39:06;19.54;84.89
69546;SHT31;56766;52.260;20.746;2023-07-13T12:41:39;19.61;84.89
69546;SHT31;56766;52.260;20.746;2023-07-13T12:44:12;19.71;85.16
69546;SHT31;56766;52.260;20.746;2023-07-13T12:46:55;19.80;85.21
69546;SHT31;56766;52.260;20.746;2023-07-13T12:49:28;19.90;85.29
69546;SHT31;56766;52.260;20.746;2023-07-13T12:52:01;19.97;85.26
69546;SHT31;56766;52.260;20.746;2023-07-13T12:54:31;19.94;84.88
69546;SHT31;56766;52.260;20.746;2023-07-13T12:56:59;19.86;84.76
69546;SHT31;56766;52.260;20.746;2023-07-13T12:59:31;19.82;84.84
69546;SHT31;56766;52.260;20.746;2023-07-13T13:02:00;19.76;84.60
69546;SHT31;56766;52.260;20.746;2023-07-13T13:04:27;19.75;84.87
69546;SHT31;56766;52.260;20.746;2023-07-13T13:07:03;19.77;84.93
69546;SHT31;56766;52.260;20.746;2023-07-13T13:09:35;19.84;85.25
69546;SHT31;56766;52.260;20.746;2023-07-13T13:12:02;19.92;85.22
69546;SHT31;56766;52.260;20.746;2023-07-13T13:14:29;19.98;85.18
69546;SHT31;56766;52.260;20.746;2023-07-13T13:16:56;20.08;85.19
69546;SHT31;56766;52.260;20.746;2023-07-13T13:19:26;20.11;85.00
69546;SHT31;56766;52.260;20.746;2023-07-13T13:21:56;20.13;84.93
69546;SHT31;56766;52.260;20.746;2023-07-13T13:24:27;20.21;85.09
69546;SHT31;56766;52.260;20.746;2023-07-13T13:26:55;20.27;84.85
69546;SHT31;56766;52.260;20.746;2023-07-13T13:29:26;20.30;84.87
69546;SHT31;56766;52.260;20.746;2023-07-13T13:31:54;20.35;84.85
69546;SHT31;56766;52.260;20.746;2023-07-13T13:34:23;20.37;84.59
69546;SHT31;56766;52.260;20.746;2023-07-13T13:36:52;20.36;84.51
69546;SHT31;56766;52.260;20.746;2023-07-13T13:39:23;20.37;84.49
69546;SHT31;56766;52.260;20.746;2023-07-13T13:41:53;20.42;84.61
69546;SHT31;56766;52.260;20.746;2023-07-13T13:44:22;20.46;84.44
69546;SHT31;56766;52.260;20.746;2023-07-13T13:46:53;20.51;84.45
69546;SHT31;56766;52.260;20.746;2023-07-13T13:49:25;20.61;84.85
69546;SHT31;56766;52.260;20.746;2023-07-13T13:51:54;20.71;84.93
69546;SHT31;56766;52.260;20.746;2023-07-13T13:54:23;20.79;85.03
69546;SHT31;56766;52.260;20.746;2023-07-13T13:56:52;20.83;84.98
69546;SHT31;56766;52.260;20.746;2023-07-13T13:59:19;20.87;84.90
69546;SHT31;56766;52.260;20.746;2023-07-13T14:01:48;20.92;84.84
69546;SHT31;56766;52.260;20.746;2023-07-13T14:04:21;20.99;84.59
69546;SHT31;56766;52.260;20.746;2023-07-13T14:06:49;21.08;84.54
69546;SHT31;56766;52.260;20.746;2023-07-13T14:09:18;21.17;84.17
69546;SHT31;56766;52.260;20.746;2023-07-13T14:11:47;21.25;84.04
69546;SHT31;56766;52.260;20.746;2023-07-13T14:14:24;21.34;84.21
69546;SHT31;56766;52.260;20.746;2023-07-13T14:16:54;21.38;84.01
69546;SHT31;56766;52.260;20.746;2023-07-13T14:19:23;21.40;83.92
69546;SHT31;56766;52.260;20.746;2023-07-13T14:21:50;21.41;84.29
69546;SHT31;56766;52.260;20.746;2023-07-13T14:24:19;21.43;84.40
69546;SHT31;56766;52.260;20.746;2023-07-13T14:26:46;21.43;84.40
69546;SHT31;56766;52.260;20.746;2023-07-13T14:29:16;21.44;84.44
69546;SHT31;56766;52.260;20.746;2023-07-13T14:31:45;21.45;84.53
69546;SHT31;56766;52.260;20.746;2023-07-13T14:34:13;21.44;84.61
69546;SHT31;56766;52.260;20.746;2023-07-13T14:36:46;21.42;84.65
69546;SHT31;56766;52.260;20.746;2023-07-13T14:39:18;21.38;84.62
69546;SHT31;56766;52.260;20.746;2023-07-13T14:41:52;21.34;84.70
69546;SHT31;56766;52.260;20.746;2023-07-13T14:44:25;21.28;84.74
69546;SHT31;56766;52.260;20.746;2023-07-13T14:47:00;21.24;84.73
69546;SHT31;56766;52.260;20.746;2023-07-13T14:52:17;21.19;84.95
69546;SHT31;56766;52.260;20.746;2023-07-13T14:54:46;21.15;85.00
69546;SHT31;56766;52.260;20.746;2023-07-13T14:57:16;21.11;84.95
69546;SHT31;56766;52.260;20.746;2023-07-13T14:59:48;21.08;85.05
69546;SHT31;56766;52.260;20.746;2023-07-13T15:02:28;21.10;85.21
69546;SHT31;56766;52.260;20.746;2023-07-13T15:04:58;21.12;85.22
69546;SHT31;56766;52.260;20.746;2023-07-13T15:07:25;21.10;85.05
69546;SHT31;56766;52.260;20.746;2023-07-13T15:09:52;21.05;85.08
69546;SHT31;56766;52.260;20.746;2023-07-13T15:12:19;21.03;85.20
69546;SHT31;56766;52.260;20.746;2023-07-13T15:14:46;21.02;85.20
69546;SHT31;56766;52.260;20.746;2023-07-13T15:17:26;20.97;85.19
69546;SHT31;56766;52.260;20.746;2023-07-13T15:19:58;20.96;85.30
69546;SHT31;56766;52.260;20.746;2023-07-13T15:22:25;20.95;85.30
69546;SHT31;56766;52.260;20.746;2023-07-13T15:24:52;20.92;85.33
69546;SHT31;56766;52.260;20.746;2023-07-13T15:27:19;20.91;85.44
69546;SHT31;56766;52.260;20.746;2023-07-13T15:29:45;20.91;85.50
69546;SHT31;56766;52.260;20.746;2023-07-13T15:32:15;20.90;85.48
69546;SHT31;56766;52.260;20.746;2023-07-13T15:34:42;20.90;85.52
69546;SHT31;56766;52.260;20.746;2023-07-13T15:37:15;20.90;85.59
69546;SHT31;56766;52.260;20.746;2023-07-13T15:39:42;20.91;85.55
69546;SHT31;56766;52.260;20.746;2023-07-13T15:42:15;20.94;85.63
69546;SHT31;56766;52.260;20.746;2023-07-13T15:44:43;20.96;85.65
69546;SHT31;56766;52.260;20.746;2023-07-13T15:47:12;20.99;85.62
69546;SHT31;56766;52.260;20.746;2023-07-13T15:49:41;21.01;85.69
69546;SHT31;56766;52.260;20.746;2023-07-13T15:52:22;21.07;85.71
69546;SHT31;56766;52.260;20.746;2023-07-13T15:54:51;21.11;85.64
69546;SHT31;56766;52.260;20.746;2023-07-13T15:57:19;21.15;85.62
69546;SHT31;56766;52.260;20.746;2023-07-13T15:59:46;21.21;85.67
69546;SHT31;56766;52.260;20.746;2023-07-13T16:02:17;21.25;85.60
69546;SHT31;56766;52.260;20.746;2023-07-13T16:04:46;21.30;85.59
69546;SHT31;56766;52.260;20.746;2023-07-13T16:07:16;21.34;85.55
69546;SHT31;56766;52.260;20.746;2023-07-13T16:09:44;21.37;85.48
69546;SHT31;56766;52.260;20.746;2023-07-13T16:12:13;21.40;85.42
69546;SHT31;56766;52.260;20.746;2023-07-13T16:14:41;21.42;85.39